Time;durP1;ratioP1;P1;durP2;ratioP2;P2;SDS_P1;SDS_P2;PMS_P1;PMS_P2;Temp;Humidity;BMP_temperature;BMP_pressure;BME280_temperature;BME280_humidity;BME280_pressure;Samples;Min_cycle;Max_cycle;Signal;HPM_P1;HPM_P2
2022/09/12 00:01:09;;;;;;;14.60;10.00;;;14.90;94.80;;;;;;4961903;28;20889;-68
2022/09/12 00:03:35;;;;;;;13.95;9.88;;;14.90;94.50;;;;;;4955071;28;20062;-68
2022/09/12 00:06:02;;;;;;;13.90;9.52;;;14.80;94.70;;;;;;4971275;28;20141;-68
2022/09/12 00:08:27;;;;;;;17.77;11.95;;;14.80;94.60;;;;;;4955577;28;20058;-69
2022/09/12 00:10:53;;;;;;;15.98;11.57;;;14.70;94.70;;;;;;4937399;29;20047;-69
2022/09/12 00:13:19;;;;;;;15.52;11.27;;;14.70;94.90;;;;;;4954005;28;20043;-69
2022/09/12 00:15:45;;;;;;;17.38;11.73;;;14.60;94.90;;;;;;4910580;28;20050;-68
2022/09/12 00:18:15;;;;;;;16.48;11.13;;;14.60;94.90;;;;;;4937831;28;20375;-69
2022/09/12 00:20:45;;;;;;;15.43;11.18;;;14.70;94.90;;;;;;4952263;28;20477;-69
2022/09/12 00:23:11;;;;;;;16.50;11.55;;;14.60;94.90;;;;;;4955263;28;20419;-69
2022/09/12 00:25:44;;;;;;;17.10;11.85;;;14.60;95.00;;;;;;4971540;28;20042;-69
2022/09/12 00:28:10;;;;;;;15.48;11.25;;;14.60;95.10;;;;;;4942622;28;20460;-69
2022/09/12 00:30:41;;;;;;;16.15;11.25;;;14.70;95.30;;;;;;4953885;28;20081;-69
2022/09/12 00:33:07;;;;;;;16.80;10.48;;;14.60;95.20;;;;;;4950693;29;20066;-69
2022/09/12 00:35:32;;;;;;;14.50;9.73;;;14.60;95.10;;;;;;4966635;28;20059;-69
2022/09/12 00:37:58;;;;;;;16.83;10.63;;;14.60;95.00;;;;;;4948591;28;20074;-69
2022/09/12 00:40:24;;;;;;;17.10;12.30;;;14.60;95.30;;;;;;4968538;28;20541;-69
2022/09/12 00:42:52;;;;;;;17.20;10.48;;;14.60;95.10;;;;;;4953590;28;20059;-69
2022/09/12 00:45:22;;;;;;;15.27;10.27;;;14.60;95.10;;;;;;4968529;28;20043;-69
2022/09/12 00:47:48;;;;;;;13.80;9.18;;;14.60;95.10;;;;;;4939741;29;20816;-69
2022/09/12 00:50:14;;;;;;;15.40;10.68;;;14.60;95.10;;;;;;4952946;28;20055;-69
2022/09/12 00:52:43;;;;;;;15.60;10.00;;;14.50;94.90;;;;;;4944997;28;20047;-69
2022/09/12 00:55:34;;;;;;;16.17;10.70;;;14.50;94.90;;;;;;4944969;29;20058;-69
2022/09/12 00:58:06;;;;;;;17.23;10.18;;;14.50;94.90;;;;;;4965822;28;20480;-69
2022/09/12 01:00:32;;;;;;;15.98;10.50;;;14.40;95.00;;;;;;4949359;28;20055;-69
2022/09/12 01:03:05;;;;;;;15.18;10.55;;;14.40;95.10;;;;;;4954684;28;20043;-69
2022/09/12 01:05:33;;;;;;;14.85;11.50;;;14.40;95.00;;;;;;4954470;28;20050;-69
2022/09/12 01:08:00;;;;;;;17.92;11.85;;;14.30;94.90;;;;;;4955695;28;20039;-69
2022/09/12 01:10:25;;;;;;;15.90;10.93;;;14.40;95.10;;;;;;4968782;28;20520;-69
2022/09/12 01:12:51;;;;;;;19.88;12.38;;;14.40;95.00;;;;;;4938073;28;20511;-69
2022/09/12 01:15:17;;;;;;;17.20;11.75;;;14.30;95.00;;;;;;4938391;28;20089;-69
2022/09/12 01:17:47;;;;;;;17.20;11.05;;;14.40;95.00;;;;;;4949594;28;20061;-69
2022/09/12 01:20:32;;;;;;;15.48;11.07;;;14.40;94.90;;;;;;4964913;28;20046;-69
2022/09/12 01:23:08;;;;;;;18.20;11.60;;;14.40;94.80;;;;;;4970344;28;20046;-69
2022/09/12 01:25:37;;;;;;;15.30;10.70;;;14.40;94.90;;;;;;4971449;28;20045;-69
2022/09/12 01:28:09;;;;;;;17.70;11.27;;;14.40;94.60;;;;;;4964945;28;20046;-69
2022/09/12 01:31:25;;;;;;;18.92;11.98;;;14.30;94.70;;;;;;4964394;28;20063;-69
2022/09/12 01:34:08;;;;;;;16.15;10.73;;;14.30;94.60;;;;;;4911122;29;20441;-70
2022/09/12 01:36:51;;;;;;;14.35;10.23;;;14.10;94.60;;;;;;4880843;29;20509;-70
2022/09/12 01:39:38;;;;;;;18.65;11.35;;;14.00;94.70;;;;;;4933837;28;20054;-70
2022/09/12 01:42:10;;;;;;;15.00;10.60;;;14.00;94.70;;;;;;4966610;28;20440;-69
2022/09/12 01:44:42;;;;;;;15.57;11.30;;;13.90;95.00;;;;;;4953646;28;20047;-70
2022/09/12 01:47:23;;;;;;;19.05;13.43;;;13.90;95.10;;;;;;4951002;28;20050;-69
2022/09/12 01:50:02;;;;;;;22.88;14.63;;;13.90;95.10;;;;;;4947168;28;20501;-69
2022/09/12 01:52:43;;;;;;;24.50;16.35;;;13.80;95.20;;;;;;4969876;28;20511;-69
2022/09/12 01:55:12;;;;;;;19.85;13.27;;;13.70;95.50;;;;;;4970226;28;20704;-69
2022/09/12 01:57:48;;;;;;;18.13;12.18;;;13.70;95.60;;;;;;4968532;28;20051;-69
2022/09/12 02:00:14;;;;;;;18.40;11.73;;;13.70;95.60;;;;;;4909108;28;20109;-70
2022/09/12 02:02:44;;;;;;;19.63;14.45;;;13.60;95.60;;;;;;4939925;28;20464;-69
2022/09/12 02:05:30;;;;;;;18.85;13.75;;;13.70;95.80;;;;;;4955992;28;20647;-69
2022/09/12 02:08:07;;;;;;;19.58;13.18;;;13.60;95.80;;;;;;4943544;28;20038;-69
2022/09/12 02:10:52;;;;;;;19.75;12.93;;;13.70;95.80;;;;;;4955064;28;20471;-70
2022/09/12 02:13:22;;;;;;;20.13;12.57;;;13.70;95.80;;;;;;4951881;28;20058;-69
2022/09/12 02:15:54;;;;;;;18.00;12.07;;;13.70;95.60;;;;;;4927466;28;20081;-70
2022/09/12 02:18:20;;;;;;;18.73;13.25;;;13.70;95.70;;;;;;4955256;28;20148;-69
2022/09/12 02:20:47;;;;;;;22.35;13.25;;;13.70;95.80;;;;;;4954277;28;20050;-70
2022/09/12 02:23:24;;;;;;;19.67;13.65;;;13.70;95.80;;;;;;4938388;28;20042;-69
2022/09/12 02:25:52;;;;;;;19.35;14.13;;;13.70;95.70;;;;;;4941667;28;20050;-69
2022/09/12 02:28:26;;;;;;;21.85;13.80;;;13.70;95.70;;;;;;4943615;28;20464;-69
2022/09/12 02:31:05;;;;;;;18.05;12.95;;;13.70;95.90;;;;;;4949157;28;20134;-69
2022/09/12 02:33:50;;;;;;;19.23;13.98;;;13.70;95.90;;;;;;4943258;28;20467;-69
2022/09/12 02:37:12;;;;;;;17.73;12.50;;;13.70;95.80;;;;;;4969127;28;20377;-70
2022/09/12 02:39:39;;;;;;;20.02;13.32;;;13.80;95.80;;;;;;4925724;28;20054;-69
2022/09/12 02:42:05;;;;;;;22.40;14.55;;;13.70;95.90;;;;;;4941390;28;20042;-69
2022/09/12 02:44:30;;;;;;;18.80;13.07;;;13.70;95.80;;;;;;4938372;28;20047;-69
2022/09/12 02:47:11;;;;;;;21.77;14.07;;;13.70;95.60;;;;;;4921882;28;20047;-69
2022/09/12 02:49:44;;;;;;;20.70;13.93;;;13.70;95.80;;;;;;4919209;28;20542;-69
2022/09/12 02:52:10;;;;;;;19.38;13.35;;;13.80;95.70;;;;;;4954302;28;20054;-69
2022/09/12 02:54:37;;;;;;;21.77;15.40;;;13.80;95.70;;;;;;4964464;28;20058;-69
2022/09/12 02:57:14;;;;;;;22.27;14.70;;;13.80;95.70;;;;;;4937549;28;20054;-69
2022/09/12 02:59:39;;;;;;;20.13;13.88;;;13.80;95.50;;;;;;4962204;28;20124;-69
2022/09/12 03:02:14;;;;;;;21.77;13.65;;;13.80;95.60;;;;;;4943171;28;20460;-69
2022/09/12 03:04:57;;;;;;;21.10;14.23;;;13.70;95.60;;;;;;4938737;28;20057;-69
2022/09/12 03:07:58;;;;;;;19.83;14.60;;;13.70;95.80;;;;;;4985131;28;20070;-70
2022/09/12 03:10:31;;;;;;;22.35;14.32;;;13.70;95.50;;;;;;4959469;28;20046;-69
2022/09/12 03:13:18;;;;;;;24.25;15.15;;;13.60;95.50;;;;;;4979498;28;20042;-69
2022/09/12 03:15:53;;;;;;;23.30;15.38;;;13.60;95.70;;;;;;4975161;28;20081;-69
2022/09/12 03:18:42;;;;;;;22.63;14.82;;;13.60;95.80;;;;;;4969485;28;20066;-69
2022/09/12 03:21:36;;;;;;;23.85;15.18;;;13.50;95.60;;;;;;4973706;28;20085;-69
2022/09/12 03:24:08;;;;;;;21.45;14.63;;;13.50;95.80;;;;;;4983169;28;20045;-69
2022/09/12 03:26:41;;;;;;;22.45;15.27;;;13.40;96.00;;;;;;4961575;28;20559;-69
2022/09/12 03:29:07;;;;;;;24.58;16.95;;;13.40;96.10;;;;;;4947952;28;20062;-68
2022/09/12 03:31:32;;;;;;;21.92;15.30;;;13.40;96.10;;;;;;4955592;28;20042;-68
2022/09/12 03:33:59;;;;;;;19.60;14.60;;;13.40;96.00;;;;;;4960423;28;20098;-68
2022/09/12 03:36:26;;;;;;;23.20;15.38;;;13.40;95.90;;;;;;4925774;28;20384;-68
2022/09/12 03:38:52;;;;;;;19.88;14.85;;;13.30;96.00;;;;;;4945542;28;20046;-68
2022/09/12 03:41:18;;;;;;;22.10;14.68;;;13.30;96.00;;;;;;4973099;28;20054;-68
2022/09/12 03:43:45;;;;;;;19.52;14.68;;;13.30;96.00;;;;;;4925885;28;20050;-68
2022/09/12 03:46:10;;;;;;;21.98;14.15;;;13.20;96.10;;;;;;4954215;28;20050;-69
2022/09/12 03:48:36;;;;;;;20.65;13.80;;;13.30;96.10;;;;;;4956958;28;20046;-69
2022/09/12 03:51:03;;;;;;;20.27;15.23;;;13.20;96.00;;;;;;4952633;28;20057;-68
2022/09/12 03:53:29;;;;;;;19.80;13.90;;;13.30;96.00;;;;;;4956978;28;20132;-69
2022/09/12 03:55:55;;;;;;;18.13;14.02;;;13.20;95.90;;;;;;4909422;28;20065;-68
2022/09/12 03:58:21;;;;;;;27.00;17.70;;;13.20;95.80;;;;;;4956878;28;20062;-68
2022/09/12 04:00:47;;;;;;;21.35;14.75;;;13.30;96.00;;;;;;4950616;28;20437;-68
2022/09/12 04:03:13;;;;;;;19.90;14.82;;;13.20;96.00;;;;;;4945991;28;20112;-68
2022/09/12 04:05:38;;;;;;;20.80;14.65;;;13.20;96.10;;;;;;4940929;28;20081;-68
2022/09/12 04:08:04;;;;;;;20.20;14.15;;;13.20;95.90;;;;;;4981251;28;20058;-69
2022/09/12 04:10:31;;;;;;;19.30;13.93;;;13.20;96.00;;;;;;4950312;28;20123;-68
2022/09/12 04:12:58;;;;;;;20.10;14.13;;;13.20;95.90;;;;;;4960821;28;20596;-69
2022/09/12 04:15:24;;;;;;;20.33;13.32;;;13.20;96.10;;;;;;4939523;28;20082;-69
2022/09/12 04:17:49;;;;;;;19.17;14.32;;;13.10;96.10;;;;;;4981152;28;20097;-68
2022/09/12 04:20:15;;;;;;;19.08;14.30;;;13.10;96.00;;;;;;4957204;28;20141;-70
2022/09/12 04:22:41;;;;;;;19.00;13.13;;;13.10;96.00;;;;;;4950084;28;20050;-69
2022/09/12 04:25:08;;;;;;;20.50;14.15;;;13.10;96.20;;;;;;4956654;28;20388;-70
2022/09/12 04:27:34;;;;;;;18.50;13.32;;;13.10;96.00;;;;;;4925187;28;20043;-70
2022/09/12 04:30:00;;;;;;;22.35;16.38;;;13.10;95.80;;;;;;4958102;28;20062;-70
2022/09/12 04:32:27;;;;;;;20.42;14.45;;;13.10;96.00;;;;;;4961901;28;20449;-70
2022/09/12 04:34:53;;;;;;;21.88;15.02;;;13.10;96.10;;;;;;4941215;28;20618;-70
2022/09/12 04:37:20;;;;;;;25.00;16.10;;;13.10;96.00;;;;;;4955345;28;20097;-70
2022/09/12 04:39:47;;;;;;;20.65;13.85;;;13.10;96.00;;;;;;4982436;28;20051;-70
2022/09/12 04:42:13;;;;;;;23.42;15.65;;;13.00;96.00;;;;;;4988298;28;20070;-71
2022/09/12 04:44:39;;;;;;;19.55;14.32;;;13.00;96.10;;;;;;4949213;28;20046;-70
2022/09/12 04:47:05;;;;;;;20.08;13.93;;;13.00;96.20;;;;;;4957852;28;20295;-70
2022/09/12 04:49:30;;;;;;;18.45;13.70;;;13.00;96.00;;;;;;4964810;28;20770;-71
2022/09/12 04:51:56;;;;;;;21.35;13.57;;;13.00;96.00;;;;;;4959357;28;20055;-70
2022/09/12 04:54:22;;;;;;;20.73;15.10;;;13.00;96.00;;;;;;4942012;28;20055;-70
2022/09/12 04:56:48;;;;;;;18.98;13.82;;;13.00;95.90;;;;;;4972186;28;20385;-70
2022/09/12 04:59:17;;;;;;;17.83;13.80;;;13.00;95.90;;;;;;4934025;28;20396;-70
2022/09/12 05:01:42;;;;;;;19.92;13.77;;;13.00;95.80;;;;;;4939951;28;20095;-70
2022/09/12 05:04:11;;;;;;;18.50;13.48;;;13.00;95.90;;;;;;4940039;28;20089;-71
2022/09/12 05:06:37;;;;;;;19.00;13.93;;;13.00;95.80;;;;;;4943464;28;20108;-70
2022/09/12 05:09:04;;;;;;;22.50;14.15;;;13.00;95.80;;;;;;4952191;28;20388;-71
2022/09/12 05:11:33;;;;;;;19.85;13.63;;;12.90;95.70;;;;;;4968810;28;20502;-70
2022/09/12 05:13:59;;;;;;;19.20;12.27;;;12.90;95.70;;;;;;4945444;28;20066;-70
2022/09/12 05:16:27;;;;;;;19.23;13.68;;;12.90;95.90;;;;;;4931482;28;20042;-70
2022/09/12 05:18:52;;;;;;;19.55;13.60;;;12.90;95.90;;;;;;4955843;28;20046;-69
2022/09/12 05:21:19;;;;;;;21.40;14.60;;;12.90;96.10;;;;;;4928782;28;20065;-70
2022/09/12 05:23:49;;;;;;;18.33;13.00;;;12.80;96.20;;;;;;4970179;28;20107;-70
2022/09/12 05:26:15;;;;;;;20.65;14.52;;;12.80;96.00;;;;;;4949500;28;20784;-70
2022/09/12 05:28:40;;;;;;;15.88;13.13;;;12.80;96.20;;;;;;4923498;28;20047;-70
2022/09/12 05:31:13;;;;;;;16.92;12.40;;;12.80;96.20;;;;;;4939488;28;20125;-70
2022/09/12 05:33:41;;;;;;;15.82;12.02;;;12.90;96.10;;;;;;4955438;28;20050;-70
2022/09/12 05:36:09;;;;;;;19.00;12.70;;;12.90;96.20;;;;;;4949738;28;20701;-70
2022/09/12 05:38:35;;;;;;;;;;;12.80;96.30;;;;;;4958477;28;20050;-69
2022/09/12 05:41:15;;;;;;;16.48;12.23;;;12.80;96.40;;;;;;4948453;28;19917;-70
2022/09/12 05:43:41;;;;;;;18.15;13.25;;;12.90;96.30;;;;;;4942178;28;20043;-70
2022/09/12 05:46:09;;;;;;;20.95;14.00;;;12.90;96.30;;;;;;4907377;28;20087;-70
2022/09/12 05:48:38;;;;;;;19.45;14.30;;;13.00;96.50;;;;;;4956638;28;20658;-70
2022/09/12 05:51:25;;;;;;;23.50;15.20;;;13.00;96.30;;;;;;4943019;28;20051;-70
2022/09/12 05:53:55;;;;;;;22.00;15.48;;;13.00;96.30;;;;;;4986352;28;20054;-70
2022/09/12 05:56:23;;;;;;;21.13;14.80;;;13.10;96.40;;;;;;4954953;28;20105;-70
2022/09/12 05:58:54;;;;;;;26.63;16.65;;;13.10;96.60;;;;;;4942148;28;20058;-70
2022/09/12 06:01:20;;;;;;;22.33;15.85;;;13.10;96.60;;;;;;4960823;28;20572;-69
2022/09/12 06:03:48;;;;;;;25.27;17.58;;;13.10;96.70;;;;;;4967636;28;20047;-69
2022/09/12 06:06:14;;;;;;;23.52;15.00;;;13.10;96.80;;;;;;4974488;28;20046;-69
2022/09/12 06:08:42;;;;;;;22.63;14.88;;;13.00;97.00;;;;;;4971916;28;20039;-70
2022/09/12 06:11:08;;;;;;;20.98;14.45;;;13.10;96.90;;;;;;4938024;28;20057;-70
2022/09/12 06:13:41;;;;;;;21.38;14.65;;;13.20;96.90;;;;;;4961479;28;20051;-70
2022/09/12 06:16:09;;;;;;;21.88;15.35;;;13.20;96.90;;;;;;4949381;28;20058;-70
2022/09/12 06:18:35;;;;;;;23.00;15.02;;;13.20;97.10;;;;;;4970313;28;20047;-70
2022/09/12 06:21:05;;;;;;;24.98;17.00;;;13.30;97.00;;;;;;4939027;28;20054;-70
2022/09/12 06:23:31;;;;;;;21.77;14.73;;;13.40;97.10;;;;;;4954322;28;20110;-70
2022/09/12 06:25:57;;;;;;;21.17;14.27;;;13.40;97.20;;;;;;4979426;28;20471;-70
2022/09/12 06:28:23;;;;;;;23.55;14.80;;;13.50;97.10;;;;;;4964873;28;20100;-70
2022/09/12 06:30:49;;;;;;;25.33;16.17;;;13.50;97.00;;;;;;4973736;28;20070;-70
2022/09/12 06:33:15;;;;;;;22.48;14.52;;;13.60;96.90;;;;;;4966076;28;20160;-70
2022/09/12 06:35:41;;;;;;;19.48;13.63;;;13.60;96.70;;;;;;4962137;28;20141;-69
2022/09/12 06:38:06;;;;;;;22.05;15.10;;;13.60;96.90;;;;;;4965524;28;20043;-70
2022/09/12 06:40:32;;;;;;;21.52;14.63;;;13.70;96.90;;;;;;4963605;28;20088;-70
2022/09/12 06:42:59;;;;;;;20.02;13.05;;;13.70;97.20;;;;;;4939913;28;20057;-70
2022/09/12 06:45:25;;;;;;;19.33;13.63;;;13.70;97.00;;;;;;4975302;28;20043;-70
2022/09/12 06:47:51;;;;;;;19.48;13.18;;;13.70;97.00;;;;;;4960631;28;20085;-70
2022/09/12 06:50:16;;;;;;;22.08;15.65;;;13.80;97.00;;;;;;4981493;28;20055;-70
2022/09/12 06:52:43;;;;;;;20.67;14.20;;;13.80;97.00;;;;;;4946267;28;20423;-70
2022/09/12 06:55:09;;;;;;;17.92;12.77;;;13.80;97.10;;;;;;4969055;28;20047;-70
2022/09/12 06:57:37;;;;;;;17.42;13.00;;;13.90;97.00;;;;;;4937406;28;20054;-71
2022/09/12 07:00:07;;;;;;;22.35;13.85;;;13.90;97.10;;;;;;4972499;28;20050;-71
2022/09/12 07:02:33;;;;;;;18.27;13.05;;;14.00;97.10;;;;;;4953736;28;20846;-71
2022/09/12 07:05:00;;;;;;;17.67;13.43;;;14.10;97.20;;;;;;4950337;28;20050;-71
2022/09/12 07:07:26;;;;;;;18.65;11.77;;;14.10;97.20;;;;;;4962315;28;20042;-71
2022/09/12 07:09:52;;;;;;;18.45;13.18;;;14.20;97.20;;;;;;4968521;28;20517;-71
2022/09/12 07:12:18;;;;;;;22.70;13.18;;;14.30;97.10;;;;;;4971194;28;20078;-71
2022/09/12 07:14:44;;;;;;;20.95;14.18;;;14.30;97.10;;;;;;4939710;28;20574;-71
2022/09/12 07:17:11;;;;;;;17.67;13.10;;;14.40;97.20;;;;;;4972177;28;20520;-71
2022/09/12 07:19:36;;;;;;;19.95;12.13;;;14.50;97.00;;;;;;4958595;28;20464;-71
2022/09/12 07:22:03;;;;;;;18.90;12.48;;;14.50;97.30;;;;;;4961661;28;20502;-70
2022/09/12 07:24:29;;;;;;;21.45;13.43;;;14.60;97.10;;;;;;4947747;28;20043;-71
2022/09/12 07:26:55;;;;;;;20.35;13.90;;;14.70;97.10;;;;;;4954263;28;20149;-70
2022/09/12 07:29:22;;;;;;;19.98;12.88;;;14.70;97.10;;;;;;4965198;28;20133;-71
2022/09/12 07:31:48;;;;;;;20.95;12.63;;;14.80;97.10;;;;;;4952566;28;20066;-71
2022/09/12 07:34:14;;;;;;;18.52;11.82;;;14.90;97.10;;;;;;4971153;28;20159;-71
2022/09/12 07:36:39;;;;;;;18.45;11.43;;;15.00;97.00;;;;;;4933124;28;20662;-71
2022/09/12 07:39:05;;;;;;;15.27;11.30;;;15.10;96.70;;;;;;4953301;28;20412;-71
2022/09/12 07:41:32;;;;;;;16.50;11.05;;;15.10;96.60;;;;;;4940310;28;20427;-70
2022/09/12 07:43:59;;;;;;;16.58;11.68;;;15.30;96.40;;;;;;4946199;28;20043;-70
2022/09/12 07:46:25;;;;;;;18.30;10.90;;;15.30;96.00;;;;;;4946904;28;20053;-71
2022/09/12 07:48:52;;;;;;;17.50;10.75;;;15.40;96.00;;;;;;4950297;28;20129;-71
2022/09/12 07:51:18;;;;;;;16.83;12.10;;;15.50;96.00;;;;;;4952680;28;20136;-71
2022/09/12 07:53:44;;;;;;;18.02;10.90;;;15.60;95.60;;;;;;4976296;28;20504;-71
2022/09/12 07:56:10;;;;;;;20.50;11.52;;;15.60;95.60;;;;;;4958685;28;20371;-71
2022/09/12 07:58:36;;;;;;;16.80;11.20;;;15.70;95.50;;;;;;4936992;28;20050;-71
2022/09/12 08:01:12;;;;;;;12.75;10.20;;;15.80;95.30;;;;;;4954027;28;20060;-71
2022/09/12 08:03:39;;;;;;;16.50;11.35;;;15.80;95.20;;;;;;4957306;28;20042;-71
2022/09/12 08:06:12;;;;;;;14.85;10.75;;;16.00;95.10;;;;;;4952883;28;20130;-70
2022/09/12 08:08:39;;;;;;;19.10;10.85;;;16.00;94.90;;;;;;4953367;28;20057;-70
2022/09/12 08:11:06;;;;;;;14.90;10.55;;;16.10;95.00;;;;;;4974997;28;20046;-70
2022/09/12 08:13:33;;;;;;;14.88;10.98;;;16.20;94.90;;;;;;4961699;28;20271;-71
2022/09/12 08:16:02;;;;;;;15.63;11.30;;;16.30;94.70;;;;;;4956512;28;20174;-70
2022/09/12 08:18:28;;;;;;;15.63;11.15;;;16.40;94.20;;;;;;4961932;28;20050;-70
2022/09/12 08:21:21;;;;;;;18.55;11.05;;;16.50;94.10;;;;;;4924942;28;20058;-71
2022/09/12 08:23:50;;;;;;;15.02;10.25;;;16.50;93.60;;;;;;4940301;28;20117;-70
2022/09/12 08:26:15;;;;;;;14.77;10.82;;;16.60;93.70;;;;;;4942805;28;20601;-71
2022/09/12 08:28:44;;;;;;;16.05;10.88;;;16.70;93.70;;;;;;4973639;28;20051;-70
2022/09/12 08:31:12;;;;;;;16.17;10.77;;;16.80;93.40;;;;;;4956190;28;20059;-71
2022/09/12 08:33:38;;;;;;;13.85;10.20;;;16.80;93.50;;;;;;4961208;28;20058;-70
2022/09/12 08:36:14;;;;;;;15.82;11.23;;;16.90;92.90;;;;;;4941075;28;20105;-70
2022/09/12 08:38:44;;;;;;;16.40;10.80;;;17.00;92.60;;;;;;4962108;28;20518;-70
2022/09/12 08:41:39;;;;;;;15.38;10.90;;;17.10;92.80;;;;;;4962004;28;20050;-70
2022/09/12 08:44:31;;;;;;;18.52;11.60;;;17.10;92.70;;;;;;4960663;28;20057;-71
2022/09/12 08:47:12;;;;;;;16.50;10.18;;;17.20;92.40;;;;;;4960314;28;20050;-71
2022/09/12 08:49:48;;;;;;;17.35;11.02;;;17.30;92.70;;;;;;4975045;28;20075;-70
2022/09/12 08:52:16;;;;;;;15.65;10.85;;;17.40;92.50;;;;;;4941705;28;20468;-71
2022/09/12 08:54:43;;;;;;;;;;;17.40;91.90;;;;;;4961810;28;20085;-71
2022/09/12 08:57:10;;;;;;;17.13;10.45;;;17.50;91.60;;;;;;4988435;28;19953;-70
2022/09/12 08:59:38;;;;;;;14.98;9.98;;;17.50;91.00;;;;;;4944661;28;20065;-71
2022/09/12 09:02:27;;;;;;;16.80;10.20;;;17.60;91.70;;;;;;4974768;28;20089;-71
2022/09/12 09:05:15;;;;;;;14.38;9.65;;;17.60;91.20;;;;;;4894301;29;20044;-71
2022/09/12 09:07:59;;;;;;;14.33;9.97;;;17.60;91.00;;;;;;4972149;28;20047;-71
2022/09/12 09:11:08;;;;;;;15.40;9.63;;;17.70;90.90;;;;;;4971209;28;20491;-71
2022/09/12 09:16:58;;;;;;;13.68;8.32;;;17.80;90.80;;;;;;4990478;28;20380;-71
2022/09/12 09:19:33;;;;;;;13.02;7.82;;;18.00;91.40;;;;;;4969774;28;20052;-71
2022/09/12 09:22:05;;;;;;;18.65;8.30;;;18.10;90.50;;;;;;4988904;28;20046;-71
2022/09/12 09:24:40;;;;;;;13.65;8.70;;;18.20;90.60;;;;;;4972657;28;20069;-71
2022/09/12 09:27:18;;;;;;;13.93;8.68;;;18.30;89.60;;;;;;4939686;28;20047;-71
2022/09/12 09:29:44;;;;;;;;;;;18.40;88.40;;;;;;4970324;28;20391;-71
2022/09/12 09:32:17;;;;;;;11.05;7.72;;;18.50;85.70;;;;;;4987044;28;19925;-71
2022/09/12 09:34:43;;;;;;;10.80;6.78;;;18.60;86.70;;;;;;4955380;28;20181;-71
2022/09/12 09:37:32;;;;;;;11.60;7.00;;;18.70;88.40;;;;;;4971082;28;20135;-71
2022/09/12 09:40:24;;;;;;;11.35;7.50;;;18.80;86.40;;;;;;4970739;28;20119;-71
2022/09/12 09:43:11;;;;;;;10.18;6.70;;;19.00;87.00;;;;;;4979184;28;20070;-71
2022/09/12 09:45:40;;;;;;;12.07;8.57;;;19.10;86.10;;;;;;4955192;28;20059;-71
2022/09/12 09:48:22;;;;;;;13.80;8.02;;;19.10;86.60;;;;;;4951636;28;20043;-71
2022/09/12 09:50:48;;;;;;;11.20;7.43;;;19.10;85.40;;;;;;4972745;28;20367;-71
2022/09/12 09:53:35;;;;;;;9.50;7.05;;;19.20;86.30;;;;;;4966805;28;20042;-71
2022/09/12 09:56:05;;;;;;;11.27;5.53;;;19.30;85.70;;;;;;4964267;28;20054;-71
2022/09/12 09:58:32;;;;;;;9.77;6.60;;;19.50;85.10;;;;;;4959107;28;20055;-71
2022/09/12 10:00:59;;;;;;;9.43;6.68;;;19.50;85.00;;;;;;4952184;28;20062;-71
2022/09/12 10:03:30;;;;;;;13.32;7.60;;;19.50;83.20;;;;;;4929179;28;20043;-71
2022/09/12 10:06:31;;;;;;;10.00;6.70;;;19.50;85.70;;;;;;4937218;29;20151;-71
2022/09/12 10:09:14;;;;;;;10.43;6.47;;;19.50;83.70;;;;;;4958237;28;20047;-71
2022/09/12 10:11:40;;;;;;;9.02;6.18;;;19.60;83.30;;;;;;4953276;28;20100;-71
2022/09/12 10:14:35;;;;;;;11.50;6.53;;;19.60;82.80;;;;;;4954673;28;20085;-71
2022/09/12 10:17:21;;;;;;;9.30;5.65;;;19.70;80.60;;;;;;4953241;28;20370;-71
2022/09/12 10:19:47;;;;;;;7.72;4.75;;;19.80;81.60;;;;;;4958119;28;20058;-71
2022/09/12 10:22:19;;;;;;;7.45;4.75;;;20.00;82.50;;;;;;4974884;28;20051;-71
2022/09/12 10:24:51;;;;;;;8.20;5.82;;;20.10;80.90;;;;;;4963490;28;20150;-72
2022/09/12 10:27:24;;;;;;;8.20;5.45;;;20.20;77.90;;;;;;4938245;28;20058;-71
2022/09/12 10:29:58;;;;;;;9.07;4.82;;;20.20;78.10;;;;;;4938083;29;20082;-71
2022/09/12 10:32:35;;;;;;;7.40;4.38;;;20.40;79.90;;;;;;4962768;28;20047;-71
2022/09/12 10:35:07;;;;;;;7.32;4.85;;;20.60;80.30;;;;;;4954967;28;20047;-71
2022/09/12 10:37:38;;;;;;;10.00;4.25;;;20.60;78.10;;;;;;4954414;28;20476;-72
2022/09/12 10:40:19;;;;;;;6.75;4.97;;;20.70;78.90;;;;;;4951880;28;20117;-71
2022/09/12 10:42:46;;;;;;;9.30;4.82;;;20.90;78.00;;;;;;4967895;28;20496;-72
2022/09/12 10:45:27;;;;;;;11.85;4.18;;;20.90;76.90;;;;;;4961464;28;20054;-71
2022/09/12 10:47:56;;;;;;;6.35;3.40;;;20.80;76.90;;;;;;4938690;28;20039;-72
2022/09/12 10:50:35;;;;;;;7.65;4.00;;;20.80;77.90;;;;;;4947532;28;20358;-71
2022/09/12 10:53:24;;;;;;;4.75;3.50;;;20.90;74.90;;;;;;4958665;28;20771;-71
2022/09/12 10:55:52;;;;;;;6.22;4.13;;;21.00;75.20;;;;;;4965118;28;20192;-72
2022/09/12 10:58:28;;;;;;;;;;;21.00;76.30;;;;;;4975845;28;20054;-71
2022/09/12 11:00:58;;;;;;;7.18;4.15;;;21.10;75.50;;;;;;4974491;28;19995;-71
2022/09/12 11:04:03;;;;;;;8.00;3.90;;;21.10;75.30;;;;;;4965031;28;20046;-70
2022/09/12 11:06:39;;;;;;;7.40;3.15;;;21.20;73.90;;;;;;4945635;28;20058;-71
2022/09/12 11:09:17;;;;;;;4.07;2.97;;;21.30;75.20;;;;;;4959116;28;20048;-71
2022/09/12 11:11:58;;;;;;;4.57;3.45;;;21.50;76.50;;;;;;4972598;28;20077;-71
2022/09/12 11:15:05;;;;;;;6.25;3.45;;;21.60;73.30;;;;;;4956980;28;20057;-71
2022/09/12 11:17:52;;;;;;;6.18;2.88;;;21.50;72.50;;;;;;4974093;28;20057;-71
2022/09/12 11:20:37;;;;;;;6.05;3.13;;;21.50;71.90;;;;;;4955977;28;20388;-71
2022/09/12 11:23:24;;;;;;;6.95;3.30;;;21.70;69.80;;;;;;4972649;28;20043;-71
2022/09/12 11:26:11;;;;;;;4.78;3.58;;;21.70;68.20;;;;;;4973004;28;20046;-71
2022/09/12 11:29:05;;;;;;;8.18;3.50;;;21.80;68.90;;;;;;4973012;28;20043;-70
2022/09/12 11:31:52;;;;;;;9.43;3.83;;;21.80;68.80;;;;;;4952729;28;20417;-70
2022/09/12 11:34:44;;;;;;;5.72;4.03;;;22.00;70.10;;;;;;4951154;28;20380;-70
2022/09/12 11:37:22;;;;;;;7.57;3.13;;;22.20;69.50;;;;;;4949219;28;20053;-70
2022/09/12 11:39:48;;;;;;;6.43;3.95;;;22.30;70.10;;;;;;4964505;28;20765;-71
2022/09/12 11:42:21;;;;;;;5.82;3.25;;;22.40;67.40;;;;;;4977250;28;20102;-70
2022/09/12 11:44:52;;;;;;;6.05;3.55;;;22.30;69.30;;;;;;4954003;28;20530;-70
2022/09/12 11:47:19;;;;;;;5.57;2.80;;;22.40;69.90;;;;;;4966441;28;20175;-70
2022/09/12 11:49:49;;;;;;;6.43;3.70;;;22.50;69.50;;;;;;4960624;28;20047;-70
2022/09/12 11:52:33;;;;;;;4.97;3.08;;;22.60;67.80;;;;;;4958294;28;20383;-70
2022/09/12 11:55:36;;;;;;;8.90;3.42;;;22.70;68.70;;;;;;4973258;28;20057;-71
2022/09/12 11:58:04;;;;;;;9.05;3.78;;;22.70;68.40;;;;;;4975793;28;20057;-71
2022/09/12 12:00:41;;;;;;;6.40;3.65;;;22.70;67.20;;;;;;4957241;28;20527;-70
2022/09/12 12:03:41;;;;;;;7.90;3.70;;;22.80;67.80;;;;;;4956721;28;20761;-71
2022/09/12 12:06:13;;;;;;;9.07;3.70;;;22.80;68.00;;;;;;4961566;28;20062;-70
2022/09/12 12:08:40;;;;;;;5.78;3.60;;;23.00;66.80;;;;;;4974679;28;20047;-70
2022/09/12 12:11:06;;;;;;;5.63;3.00;;;23.10;67.90;;;;;;4924413;28;20046;-71
2022/09/12 12:13:33;;;;;;;6.30;3.13;;;23.00;68.00;;;;;;4941042;28;20742;-70
2022/09/12 12:16:02;;;;;;;8.43;3.08;;;23.10;66.00;;;;;;4956459;28;20467;-71
2022/09/12 12:18:29;;;;;;;4.30;2.90;;;23.20;66.10;;;;;;4944036;28;20054;-70
2022/09/12 12:20:55;;;;;;;5.82;3.47;;;23.30;66.00;;;;;;4959969;28;20407;-71
2022/09/12 12:23:28;;;;;;;7.45;3.53;;;23.30;65.90;;;;;;4973261;28;20046;-71
2022/09/12 12:25:55;;;;;;;5.40;3.00;;;23.30;66.00;;;;;;4957729;28;20384;-71
2022/09/12 12:28:39;;;;;;;5.00;3.00;;;23.30;65.90;;;;;;4956333;28;20046;-70
2022/09/12 12:31:06;;;;;;;5.72;3.00;;;23.40;64.10;;;;;;4972995;28;20477;-71
2022/09/12 12:33:38;;;;;;;6.78;3.13;;;23.20;65.30;;;;;;4972843;28;20476;-71
2022/09/12 12:36:08;;;;;;;4.47;2.97;;;23.20;64.90;;;;;;4958859;28;20535;-71
2022/09/12 12:38:34;;;;;;;4.75;3.03;;;23.20;64.10;;;;;;4957658;28;20377;-71
2022/09/12 12:41:18;;;;;;;6.07;3.25;;;23.40;63.60;;;;;;4956178;28;20047;-71
2022/09/12 12:43:48;;;;;;;5.60;2.97;;;23.60;63.30;;;;;;4976439;28;20142;-70
2022/09/12 12:46:14;;;;;;;7.03;3.00;;;23.90;63.40;;;;;;4955457;28;20047;-71
2022/09/12 12:49:09;;;;;;;4.57;2.50;;;24.00;60.70;;;;;;4955464;28;20049;-71
2022/09/12 12:51:53;;;;;;;4.10;2.65;;;23.90;61.40;;;;;;4969218;28;20051;-71
2022/09/12 12:54:45;;;;;;;4.03;2.53;;;23.80;63.00;;;;;;4973493;28;20046;-71
2022/09/12 12:57:45;;;;;;;5.15;2.22;;;23.60;62.80;;;;;;4972922;28;20051;-70
2022/09/12 13:00:20;;;;;;;5.40;2.53;;;23.50;63.00;;;;;;4943893;28;20547;-71
2022/09/12 13:02:54;;;;;;;3.70;2.10;;;23.30;63.10;;;;;;4978572;28;20050;-70